createdAt,value
2018-12-29T00:00:04.642Z,25.40
2018-12-29T00:01:04.627Z,24.50
2018-12-29T00:02:04.638Z,23.80
2018-12-29T00:03:04.651Z,24.20
2018-12-29T00:04:04.594Z,24.10
2018-12-29T00:05:04.595Z,23.50
2018-12-29T00:06:04.576Z,25.20
2018-12-29T00:07:05.876Z,22.80
2018-12-29T00:08:04.555Z,25.50
2018-12-29T00:09:04.578Z,23.30
2018-12-29T00:10:04.555Z,21.00
2018-12-29T00:11:04.519Z,24.00
2018-12-29T00:12:04.509Z,21.80
2018-12-29T00:13:04.497Z,20.70
2018-12-29T00:14:04.491Z,21.80
2018-12-29T00:15:04.521Z,24.20
2018-12-29T00:16:04.461Z,22.10
2018-12-29T00:17:04.452Z,22.50
2018-12-29T00:18:04.454Z,23.30
2018-12-29T00:19:04.429Z,22.60
2018-12-29T00:20:04.422Z,23.40
2018-12-29T00:21:04.434Z,25.10
2018-12-29T00:22:04.394Z,24.50
2018-12-29T00:23:04.385Z,24.00
2018-12-29T00:24:04.384Z,24.60
2018-12-29T00:25:04.385Z,23.90
2018-12-29T00:26:04.356Z,23.40
2018-12-29T00:27:04.339Z,23.90
2018-12-29T00:28:04.330Z,24.00
2018-12-29T00:29:04.317Z,23.70
2018-12-29T00:30:04.346Z,25.10
2018-12-29T00:31:04.301Z,23.10
2018-12-29T00:32:04.283Z,24.40
2018-12-29T00:33:04.279Z,21.40
2018-12-29T00:34:04.267Z,22.70
2018-12-29T00:35:04.267Z,22.90
2018-12-29T00:36:04.264Z,23.80
2018-12-29T00:37:04.252Z,25.10
2018-12-29T00:38:04.225Z,25.90
2018-12-29T00:39:04.207Z,24.80
2018-12-29T00:40:04.203Z,23.70
2018-12-29T00:41:04.208Z,24.60
2018-12-29T00:42:04.214Z,25.40
2018-12-29T00:43:04.164Z,24.80
2018-12-29T00:44:04.176Z,23.10
2018-12-29T00:45:04.142Z,23.10
2018-12-29T00:46:04.135Z,26.40
2018-12-29T00:47:04.122Z,26.00
2018-12-29T00:48:04.123Z,26.60
2018-12-29T00:49:04.105Z,25.00
2018-12-29T00:50:04.086Z,23.20
2018-12-29T00:51:04.076Z,26.20
2018-12-29T00:52:04.087Z,29.80
2018-12-29T00:53:04.057Z,27.20
2018-12-29T00:54:04.041Z,25.30
2018-12-29T00:55:04.056Z,27.00
2018-12-29T00:56:04.023Z,27.90
2018-12-29T00:57:04.047Z,25.50
2018-12-29T00:58:04.013Z,26.70
2018-12-29T00:59:04.015Z,26.60
2018-12-29T01:00:03.982Z,27.20
2018-12-29T01:01:03.963Z,26.80
2018-12-29T01:02:03.959Z,29.80
2018-12-29T01:03:03.956Z,26.80
2018-12-29T01:04:03.937Z,26.60
2018-12-29T01:05:03.923Z,26.00
2018-12-29T01:06:03.914Z,27.30
2018-12-29T01:07:03.901Z,26.00
2018-12-29T01:08:03.912Z,26.00
2018-12-29T01:09:03.881Z,25.30
2018-12-29T01:10:03.870Z,26.80
2018-12-29T01:11:03.859Z,25.10
2018-12-29T01:12:03.845Z,26.10
2018-12-29T01:13:03.849Z,24.90
2018-12-29T01:14:03.828Z,26.40
2018-12-29T01:15:09.864Z,26.60
2018-12-29T01:16:04.814Z,26.40
2018-12-29T01:17:03.789Z,25.80
2018-12-29T01:18:03.775Z,26.30
2018-12-29T01:19:03.765Z,24.80
2018-12-29T01:20:03.753Z,26.30
2018-12-29T01:21:03.782Z,26.80
2018-12-29T01:22:03.735Z,26.70
2018-12-29T01:23:03.725Z,26.30
2018-12-29T01:24:03.712Z,26.10
2018-12-29T01:25:03.717Z,27.50
2018-12-29T01:26:03.730Z,25.10
2018-12-29T01:27:03.707Z,26.90
2018-12-29T01:28:03.689Z,25.70
2018-12-29T01:29:03.657Z,27.50
2018-12-29T01:30:03.649Z,26.20
2018-12-29T01:31:03.656Z,26.20
2018-12-29T01:32:03.626Z,26.80
2018-12-29T01:33:03.610Z,25.40
2018-12-29T01:34:03.602Z,27.20
2018-12-29T01:35:03.600Z,27.00
2018-12-29T01:36:03.601Z,27.10
2018-12-29T01:37:03.573Z,27.40
2018-12-29T01:38:03.557Z,28.30
2018-12-29T01:39:03.551Z,27.70
2018-12-29T01:40:03.556Z,26.70
2018-12-29T01:41:03.531Z,28.20
2018-12-29T01:42:03.535Z,27.50
2018-12-29T01:43:03.502Z,27.60
2018-12-29T01:44:03.513Z,29.40
2018-12-29T01:45:03.484Z,27.00
2018-12-29T01:46:03.468Z,27.80
2018-12-29T01:47:03.508Z,25.50
2018-12-29T01:48:03.450Z,26.80
2018-12-29T01:49:03.438Z,28.40
2018-12-29T01:50:03.427Z,29.50
2018-12-29T01:51:03.416Z,30.40
2018-12-29T01:52:03.403Z,31.20
2018-12-29T01:53:03.409Z,30.30
2018-12-29T01:54:03.411Z,30.10
2018-12-29T01:55:03.374Z,29.70
2018-12-29T01:56:03.364Z,28.60
2018-12-29T01:57:03.350Z,30.70
2018-12-29T01:58:03.342Z,29.90
2018-12-29T01:59:03.327Z,30.70
2018-12-29T02:00:03.344Z,32.40
2018-12-29T02:01:03.363Z,30.40
2018-12-29T02:02:03.299Z,30.90
2018-12-29T02:03:03.301Z,29.00
2018-12-29T02:04:03.277Z,28.90
2018-12-29T02:05:03.280Z,29.60
2018-12-29T02:06:03.254Z,29.90
2018-12-29T02:07:03.510Z,28.40
2018-12-29T02:08:03.231Z,28.40
2018-12-29T02:09:03.231Z,29.60
2018-12-29T02:10:03.208Z,28.20
2018-12-29T02:11:03.203Z,32.40
2018-12-29T02:12:03.193Z,30.80
2018-12-29T02:13:03.182Z,30.80
2018-12-29T02:14:03.182Z,29.80
2018-12-29T02:15:03.154Z,29.50
2018-12-29T02:16:03.152Z,29.40
2018-12-29T02:17:03.134Z,30.70
2018-12-29T02:18:03.145Z,28.90
2018-12-29T02:19:03.115Z,28.50
2018-12-29T02:20:03.115Z,28.40
2018-12-29T02:21:03.094Z,29.00
2018-12-29T02:22:03.081Z,28.90
2018-12-29T02:23:03.072Z,29.80
2018-12-29T02:24:03.061Z,31.00
2018-12-29T02:25:03.097Z,31.50
2018-12-29T02:26:03.044Z,30.00
2018-12-29T02:27:03.026Z,30.70
2018-12-29T02:28:03.014Z,29.70
2018-12-29T02:29:03.003Z,29.80
2018-12-29T02:30:03.059Z,29.90
2018-12-29T02:31:03.020Z,29.40
2018-12-29T02:32:02.968Z,29.20
2018-12-29T02:33:02.958Z,30.60
2018-12-29T02:34:02.953Z,31.60
2018-12-29T02:35:02.936Z,31.80
2018-12-29T02:36:02.968Z,30.90
2018-12-29T02:37:02.912Z,30.20
2018-12-29T02:38:02.909Z,31.70
2018-12-29T02:39:02.894Z,30.50
2018-12-29T02:40:03.044Z,30.20
2018-12-29T02:41:02.870Z,31.00
2018-12-29T02:42:02.891Z,29.50
2018-12-29T02:43:02.849Z,30.40
2018-12-29T02:44:02.873Z,30.10
2018-12-29T02:45:02.831Z,29.50
2018-12-29T02:46:02.823Z,30.90
2018-12-29T02:47:02.808Z,30.40
2018-12-29T02:48:02.817Z,27.50
2018-12-29T02:49:02.791Z,26.60
2018-12-29T02:50:02.770Z,29.40
2018-12-29T02:51:02.773Z,28.90
2018-12-29T02:52:02.753Z,29.60
2018-12-29T02:53:02.785Z,30.00
2018-12-29T02:54:02.732Z,30.60
2018-12-29T02:55:02.720Z,28.60
2018-12-29T02:56:02.711Z,29.20
2018-12-29T02:57:02.700Z,26.10
2018-12-29T02:58:02.684Z,31.10
2018-12-29T02:59:02.721Z,29.50
2018-12-29T03:00:02.664Z,30.00
2018-12-29T03:01:02.655Z,29.80
2018-12-29T03:02:02.640Z,27.60
2018-12-29T03:03:02.634Z,29.30
2018-12-29T03:04:02.629Z,29.90
2018-12-29T03:05:02.630Z,30.60
2018-12-29T03:06:02.604Z,29.70
2018-12-29T03:07:02.588Z,27.40
2018-12-29T03:08:02.598Z,26.00
2018-12-29T03:09:02.567Z,29.50
2018-12-29T03:10:02.552Z,30.20
2018-12-29T03:11:02.564Z,30.90
2018-12-29T03:12:02.531Z,26.70
2018-12-29T03:13:02.518Z,28.20
2018-12-29T03:14:02.540Z,30.10
2018-12-29T03:15:02.501Z,29.00
2018-12-29T03:16:02.493Z,26.90
2018-12-29T03:17:02.499Z,27.30
2018-12-29T03:18:02.463Z,28.00
2018-12-29T03:19:02.457Z,29.40
2018-12-29T03:20:02.448Z,26.00
2018-12-29T03:21:02.435Z,28.90
2018-12-29T03:22:02.423Z,29.10
2018-12-29T03:23:02.450Z,26.00
2018-12-29T03:24:02.405Z,27.10
2018-12-29T03:25:02.396Z,27.20
2018-12-29T03:26:02.378Z,27.90
2018-12-29T03:27:02.366Z,29.30
2018-12-29T03:28:02.375Z,28.20
2018-12-29T03:29:02.372Z,27.90
2018-12-29T03:30:02.337Z,27.90
2018-12-29T03:31:02.331Z,27.70
2018-12-29T03:32:02.316Z,28.30
2018-12-29T03:33:02.343Z,29.80
2018-12-29T03:34:02.287Z,29.10
2018-12-29T03:35:02.281Z,29.00
2018-12-29T03:36:02.270Z,29.20
2018-12-29T03:37:02.267Z,27.50
2018-12-29T03:38:02.249Z,27.40
2018-12-29T03:39:02.258Z,27.90
2018-12-29T03:40:02.221Z,29.10
2018-12-29T03:41:02.217Z,28.10
2018-12-29T03:42:02.200Z,28.70
2018-12-29T03:43:02.188Z,27.20
2018-12-29T03:44:02.204Z,27.90
2018-12-29T03:45:02.172Z,29.10
2018-12-29T03:46:02.171Z,26.50
2018-12-29T03:47:02.150Z,27.50
2018-12-29T03:48:02.139Z,26.90
2018-12-29T03:49:02.148Z,28.20
2018-12-29T03:50:02.137Z,28.80
2018-12-29T03:51:02.108Z,26.50
2018-12-29T03:52:02.094Z,28.30
2018-12-29T03:53:02.091Z,28.20
2018-12-29T03:54:02.068Z,28.90
2018-12-29T03:55:02.095Z,29.00
2018-12-29T03:56:02.046Z,28.60
2018-12-29T03:57:02.035Z,29.40
2018-12-29T03:58:02.033Z,29.40
2018-12-29T03:59:02.015Z,28.90
2018-12-29T04:00:02.003Z,27.80
2018-12-29T04:01:02.042Z,28.00
2018-12-29T04:02:01.986Z,28.00
2018-12-29T04:03:01.979Z,28.20
2018-12-29T04:04:01.966Z,28.40
2018-12-29T04:05:01.958Z,29.30
2018-12-29T04:06:01.942Z,29.00
2018-12-29T04:07:01.949Z,27.60
2018-12-29T04:08:01.938Z,29.20
2018-12-29T04:09:01.913Z,28.20
2018-12-29T04:10:01.898Z,27.80
2018-12-29T04:11:01.885Z,28.90
2018-12-29T04:12:01.900Z,30.00
2018-12-29T04:13:01.894Z,27.70
2018-12-29T04:14:01.862Z,28.70
2018-12-29T04:15:01.858Z,28.30
2018-12-29T04:16:01.826Z,30.20
2018-12-29T04:17:01.819Z,30.00
2018-12-29T04:18:01.814Z,28.60
2018-12-29T04:19:01.817Z,26.50
2018-12-29T04:20:01.787Z,27.70
2018-12-29T04:21:01.784Z,27.90
2018-12-29T04:22:01.765Z,28.90
2018-12-29T04:23:01.754Z,30.30
2018-12-29T04:24:01.784Z,31.40
2018-12-29T04:25:01.732Z,28.80
2018-12-29T04:26:01.731Z,29.90
2018-12-29T04:27:01.708Z,30.20
2018-12-29T04:28:01.692Z,31.10
2018-12-29T04:29:01.688Z,30.10
2018-12-29T04:30:01.687Z,30.90
2018-12-29T04:31:01.661Z,30.50
2018-12-29T04:32:01.658Z,32.00
2018-12-29T04:33:01.682Z,32.30
2018-12-29T04:34:01.627Z,32.00
2018-12-29T04:35:01.619Z,32.40
2018-12-29T04:36:01.612Z,31.40
2018-12-29T04:37:01.627Z,31.30
2018-12-29T04:38:01.590Z,30.60
2018-12-29T04:39:01.596Z,31.30
2018-12-29T04:40:01.587Z,30.10
2018-12-29T04:41:01.550Z,30.90
2018-12-29T04:42:01.540Z,32.10
2018-12-29T04:43:01.529Z,30.30
2018-12-29T04:44:01.525Z,30.50
2018-12-29T04:45:01.593Z,32.70
2018-12-29T04:46:05.172Z,33.50
2018-12-29T04:47:01.483Z,32.10
2018-12-29T04:48:01.478Z,31.40
2018-12-29T04:49:01.461Z,30.10
2018-12-29T04:50:01.457Z,30.40
2018-12-29T04:51:01.451Z,31.80
2018-12-29T04:52:01.469Z,31.00
2018-12-29T04:53:01.427Z,31.60
2018-12-29T04:54:01.407Z,31.10
2018-12-29T04:55:01.404Z,32.20
2018-12-29T04:56:01.391Z,31.70
2018-12-29T04:57:01.379Z,30.50
2018-12-29T04:58:01.399Z,31.40
2018-12-29T04:59:01.360Z,30.40
2018-12-29T05:00:01.355Z,30.20
2018-12-29T05:01:01.330Z,30.90
2018-12-29T05:02:01.324Z,31.50
2018-12-29T05:03:01.357Z,32.10
2018-12-29T05:04:01.328Z,31.00
2018-12-29T05:05:01.291Z,30.70
2018-12-29T05:06:01.282Z,30.60
2018-12-29T05:07:01.263Z,28.90
2018-12-29T05:08:01.257Z,31.10
2018-12-29T05:09:01.267Z,30.20
2018-12-29T05:10:01.237Z,29.40
2018-12-29T05:11:01.226Z,29.40
2018-12-29T05:12:01.237Z,29.20
2018-12-29T05:13:01.199Z,28.10
2018-12-29T05:14:01.191Z,28.00
2018-12-29T05:15:01.277Z,30.60
2018-12-29T05:16:01.164Z,28.60
2018-12-29T05:17:01.153Z,27.30
2018-12-29T05:18:01.171Z,29.00
2018-12-29T05:19:01.133Z,28.00
2018-12-29T05:20:01.145Z,28.70
2018-12-29T05:21:01.161Z,28.40
2018-12-29T05:22:01.098Z,28.30
2018-12-29T05:23:01.093Z,29.20
2018-12-29T05:24:01.086Z,29.30
2018-12-29T05:25:01.075Z,29.80
2018-12-29T05:26:01.057Z,29.50
2018-12-29T05:27:01.069Z,28.60
2018-12-29T05:28:01.035Z,29.20
2018-12-29T05:29:01.022Z,29.00
2018-12-29T05:30:01.017Z,27.80
2018-12-29T05:31:01.008Z,24.00
2018-12-29T05:32:01.046Z,28.30
2018-12-29T05:33:00.978Z,29.00
2018-12-29T05:34:00.968Z,27.50
2018-12-29T05:35:00.961Z,29.30
2018-12-29T05:36:00.955Z,27.80
2018-12-29T05:37:00.946Z,30.00
2018-12-29T05:38:00.954Z,30.10
2018-12-29T05:39:00.914Z,29.40
2018-12-29T05:40:00.902Z,30.10
2018-12-29T05:41:00.893Z,29.90
2018-12-29T05:42:00.884Z,29.50
2018-12-29T05:43:00.873Z,29.60
2018-12-29T05:44:00.881Z,29.90
2018-12-29T05:45:00.850Z,30.40
2018-12-29T05:46:00.911Z,33.00
2018-12-29T05:47:00.830Z,30.00
2018-12-29T05:48:00.815Z,45.00
2018-12-29T05:49:00.827Z,29.80
2018-12-29T05:50:00.793Z,28.20
2018-12-29T05:51:00.789Z,27.50
2018-12-29T05:52:00.775Z,29.50
2018-12-29T05:53:00.775Z,27.60
2018-12-29T05:54:00.786Z,26.20
2018-12-29T05:55:00.736Z,27.60
2018-12-29T05:56:00.744Z,27.20
2018-12-29T05:57:00.720Z,27.90
2018-12-29T05:58:00.709Z,28.90
2018-12-29T05:59:00.719Z,28.60
2018-12-29T06:00:00.703Z,28.60
2018-12-29T06:01:00.676Z,27.60
2018-12-29T06:02:00.677Z,28.20
2018-12-29T06:03:00.653Z,28.10
2018-12-29T06:04:00.639Z,27.30
2018-12-29T06:05:00.631Z,28.00
2018-12-29T06:06:00.617Z,28.60
2018-12-29T06:07:00.628Z,29.40
2018-12-29T06:08:00.602Z,26.00
2018-12-29T06:09:00.588Z,28.90
2018-12-29T06:10:00.573Z,31.00
2018-12-29T06:11:00.605Z,30.90
2018-12-29T06:12:00.560Z,31.70
2018-12-29T06:13:00.543Z,59.60
2018-12-29T06:14:00.525Z,36.20
2018-12-29T06:15:00.521Z,29.10
2018-12-29T06:16:00.511Z,27.80
2018-12-29T06:17:00.539Z,28.10
2018-12-29T06:18:00.489Z,29.10
2018-12-29T06:19:00.480Z,30.20
2018-12-29T06:20:00.466Z,28.60
2018-12-29T06:21:00.456Z,29.50
2018-12-29T06:22:00.437Z,27.50
2018-12-29T06:23:00.454Z,28.60
2018-12-29T06:24:00.422Z,27.60
2018-12-29T06:25:00.414Z,26.50
2018-12-29T06:26:00.400Z,26.40
2018-12-29T06:27:00.406Z,27.00
2018-12-29T06:28:00.371Z,28.30
2018-12-29T06:29:00.360Z,26.60
2018-12-29T06:30:00.372Z,31.50
2018-12-29T06:31:00.339Z,31.80
2018-12-29T06:32:00.327Z,30.40
2018-12-29T06:33:00.322Z,28.50
2018-12-29T06:34:00.314Z,28.90
2018-12-29T06:35:00.337Z,28.70
2018-12-29T06:36:00.289Z,29.70
2018-12-29T06:37:00.277Z,29.40
2018-12-29T06:38:00.269Z,28.80
2018-12-29T06:39:00.257Z,29.00
2018-12-29T06:40:00.239Z,28.90
2018-12-29T06:41:00.248Z,30.00
2018-12-29T06:42:00.222Z,27.90
2018-12-29T06:43:00.207Z,30.10
2018-12-29T06:44:00.196Z,30.20
2018-12-29T06:45:00.270Z,29.70
2018-12-29T06:46:00.185Z,31.00
2018-12-29T06:47:00.168Z,30.60
2018-12-29T06:48:00.152Z,35.80
2018-12-29T06:49:00.142Z,30.80
2018-12-29T06:50:00.261Z,39.00
2018-12-29T06:51:00.143Z,31.20
2018-12-29T06:52:00.107Z,30.60
2018-12-29T06:53:00.096Z,31.40
2018-12-29T06:54:00.087Z,28.90
2018-12-29T06:55:00.182Z,31.10
2018-12-29T06:56:00.064Z,28.80
2018-12-29T06:57:00.077Z,27.70
2018-12-29T06:58:00.043Z,27.70
2018-12-29T06:59:00.039Z,28.60
2018-12-29T07:00:00.027Z,29.60
2018-12-29T07:01:00.017Z,27.70
2018-12-29T07:02:00.024Z,30.40
2018-12-29T07:03:00.032Z,29.70
2018-12-29T07:03:59.976Z,29.50
2018-12-29T07:04:59.972Z,29.40
2018-12-29T07:05:59.959Z,28.90
2018-12-29T07:06:59.943Z,29.90
2018-12-29T07:07:59.956Z,29.40
2018-12-29T07:08:59.923Z,28.70
2018-12-29T07:09:59.919Z,29.10
2018-12-29T07:10:59.906Z,29.90
2018-12-29T07:11:59.889Z,29.50
2018-12-29T07:12:59.916Z,25.80
2018-12-29T07:13:59.866Z,31.60
2018-12-29T07:14:59.862Z,34.30
2018-12-29T07:15:59.869Z,29.00
2018-12-29T07:16:59.848Z,30.30
2018-12-29T07:17:59.823Z,28.40
2018-12-29T07:18:59.848Z,27.40
2018-12-29T07:19:59.806Z,28.80
2018-12-29T07:20:59.795Z,30.10
2018-12-29T07:21:59.787Z,30.10
2018-12-29T07:22:59.771Z,29.20
2018-12-29T07:23:59.762Z,29.30
2018-12-29T07:24:59.785Z,29.00
2018-12-29T07:25:59.734Z,28.80
2018-12-29T07:26:59.727Z,30.80
2018-12-29T07:27:59.721Z,30.30
2018-12-29T07:28:59.701Z,29.30
2018-12-29T07:29:59.697Z,30.30
2018-12-29T07:30:59.717Z,29.40
2018-12-29T07:31:59.671Z,30.80
2018-12-29T07:32:59.660Z,29.80
2018-12-29T07:33:59.649Z,29.00
2018-12-29T07:34:59.640Z,30.70
2018-12-29T07:35:59.650Z,31.20
2018-12-29T07:36:59.615Z,31.70
2018-12-29T07:37:59.605Z,30.10
2018-12-29T07:38:59.590Z,29.90
2018-12-29T07:39:59.586Z,30.20
2018-12-29T07:40:59.612Z,29.60
2018-12-29T07:41:59.557Z,29.90
2018-12-29T07:42:59.549Z,29.60
2018-12-29T07:43:59.535Z,30.60
2018-12-29T07:44:59.525Z,30.40
2018-12-29T07:45:59.517Z,29.30
2018-12-29T07:46:59.548Z,29.40
2018-12-29T07:47:59.493Z,29.60
2018-12-29T07:48:59.484Z,29.80
2018-12-29T07:49:59.473Z,29.80
2018-12-29T07:50:59.461Z,30.80
2018-12-29T07:51:59.446Z,29.30
2018-12-29T07:52:59.474Z,29.20
2018-12-29T07:53:59.430Z,27.60
2018-12-29T07:54:59.413Z,26.30
2018-12-29T07:55:59.412Z,28.00
2018-12-29T07:56:59.389Z,26.40
2018-12-29T07:57:59.379Z,26.70
2018-12-29T07:58:59.393Z,27.20
2018-12-29T07:59:59.363Z,27.00
2018-12-29T08:00:59.353Z,27.60
2018-12-29T08:01:59.335Z,25.20
2018-12-29T08:02:59.329Z,26.90
2018-12-29T08:03:59.346Z,27.30
2018-12-29T08:04:59.309Z,27.40
2018-12-29T08:05:59.295Z,27.50
2018-12-29T08:06:59.279Z,27.70
2018-12-29T08:07:59.279Z,27.60
2018-12-29T08:08:59.301Z,27.10
2018-12-29T08:09:59.246Z,26.80
2018-12-29T08:10:59.252Z,27.70
2018-12-29T08:11:59.227Z,26.00
2018-12-29T08:12:59.217Z,27.20
2018-12-29T08:13:59.205Z,25.60
2018-12-29T08:14:59.220Z,27.30
2018-12-29T08:15:59.220Z,26.40
2018-12-29T08:16:59.168Z,32.10
2018-12-29T08:17:59.225Z,29.60
2018-12-29T08:18:59.147Z,33.40
2018-12-29T08:19:59.138Z,31.10
2018-12-29T08:20:59.125Z,27.80
2018-12-29T08:21:59.136Z,27.40
2018-12-29T08:22:59.104Z,27.30
2018-12-29T08:23:59.103Z,26.10
2018-12-29T08:24:59.129Z,27.10
2018-12-29T08:25:59.097Z,27.40
2018-12-29T08:26:59.090Z,25.60
2018-12-29T08:27:59.054Z,23.70
2018-12-29T08:28:59.041Z,25.00
2018-12-29T08:29:59.026Z,25.00
2018-12-29T08:30:59.020Z,25.50
2018-12-29T08:31:59.026Z,26.10
2018-12-29T08:32:58.996Z,33.00
2018-12-29T08:33:58.981Z,29.70
2018-12-29T08:34:58.976Z,30.50
2018-12-29T08:35:58.964Z,26.10
2018-12-29T08:36:58.975Z,23.60
2018-12-29T08:37:58.964Z,24.70
2018-12-29T08:38:58.926Z,26.30
2018-12-29T08:39:58.918Z,27.20
2018-12-29T08:40:58.906Z,29.30
2018-12-29T08:41:58.897Z,28.80
2018-12-29T08:42:58.885Z,27.30
2018-12-29T08:43:58.896Z,28.00
2018-12-29T08:44:58.861Z,24.60
2018-12-29T08:45:58.848Z,24.60
2018-12-29T08:47:04.496Z,22.40
2018-12-29T08:47:59.833Z,26.20
2018-12-29T08:48:58.846Z,25.00
2018-12-29T08:49:58.810Z,26.00
2018-12-29T08:50:58.793Z,26.70
2018-12-29T08:51:58.780Z,26.30
2018-12-29T08:52:58.775Z,27.10
2018-12-29T08:53:58.764Z,27.80
2018-12-29T08:54:58.772Z,29.00
2018-12-29T08:55:58.738Z,25.60
2018-12-29T08:56:58.725Z,28.30
2018-12-29T08:57:58.719Z,27.90
2018-12-29T08:58:58.703Z,42.80
2018-12-29T08:59:58.710Z,36.30
2018-12-29T09:00:58.682Z,30.20
2018-12-29T09:01:58.671Z,26.30
2018-12-29T09:02:58.660Z,27.20
2018-12-29T09:03:58.653Z,26.80
2018-12-29T09:04:58.639Z,27.50
2018-12-29T09:05:58.658Z,25.30
2018-12-29T09:06:58.616Z,25.40
2018-12-29T09:07:58.608Z,28.10
2018-12-29T09:08:58.599Z,26.00
2018-12-29T09:09:58.589Z,27.30
2018-12-29T09:10:58.580Z,27.50
2018-12-29T09:11:58.601Z,28.60
2018-12-29T09:12:58.553Z,27.90
2018-12-29T09:13:58.539Z,26.70
2018-12-29T09:14:58.531Z,27.40
2018-12-29T09:15:58.523Z,33.00
2018-12-29T09:16:58.527Z,28.50
2018-12-29T09:17:58.507Z,30.10
2018-12-29T09:18:58.491Z,29.20
2018-12-29T09:19:58.477Z,30.80
2018-12-29T09:20:58.465Z,29.80
2018-12-29T09:21:58.473Z,27.10
2018-12-29T09:22:58.438Z,24.70
2018-12-29T09:23:58.427Z,23.70
2018-12-29T09:24:58.421Z,24.50
2018-12-29T09:25:58.405Z,25.30
2018-12-29T09:26:58.418Z,25.40
2018-12-29T09:27:58.409Z,23.10
2018-12-29T09:28:58.378Z,23.00
2018-12-29T09:29:58.368Z,24.80
2018-12-29T09:30:58.355Z,26.10
2018-12-29T09:31:58.342Z,23.80
2018-12-29T09:32:58.351Z,23.80
2018-12-29T09:33:58.322Z,22.00
2018-12-29T09:34:58.314Z,24.00
2018-12-29T09:35:58.317Z,23.70
2018-12-29T09:36:58.285Z,25.40
2018-12-29T09:37:58.298Z,23.80
2018-12-29T09:38:58.285Z,24.80
2018-12-29T09:39:58.259Z,22.90
2018-12-29T09:40:58.241Z,22.90
2018-12-29T09:41:58.249Z,24.30
2018-12-29T09:42:58.225Z,24.00
2018-12-29T09:43:58.217Z,22.80
2018-12-29T09:44:58.202Z,20.90
2018-12-29T09:45:58.189Z,21.10
2018-12-29T09:46:58.178Z,21.90
2018-12-29T09:47:58.167Z,26.90
2018-12-29T09:48:58.171Z,32.70
2018-12-29T09:49:58.150Z,22.70
2018-12-29T09:50:58.130Z,22.60
2018-12-29T09:51:58.196Z,21.60
2018-12-29T09:52:58.108Z,15.40
2018-12-29T09:53:58.096Z,19.50
2018-12-29T09:54:58.108Z,21.40
2018-12-29T09:55:58.080Z,21.20
2018-12-29T09:56:58.069Z,21.10
2018-12-29T09:57:58.075Z,22.40
2018-12-29T09:58:58.049Z,22.50
2018-12-29T09:59:58.031Z,22.40
2018-12-29T10:00:58.024Z,22.30
2018-12-29T10:01:58.018Z,23.10
2018-12-29T10:02:58.015Z,23.70
2018-12-29T10:03:57.988Z,25.30
2018-12-29T10:04:57.983Z,23.80
2018-12-29T10:05:57.966Z,23.10
2018-12-29T10:06:57.954Z,23.30
2018-12-29T10:07:57.968Z,22.00
2018-12-29T10:08:57.956Z,22.20
2018-12-29T10:09:57.931Z,22.10
2018-12-29T10:10:57.915Z,22.60
2018-12-29T10:11:57.909Z,24.90
2018-12-29T10:12:57.895Z,32.20
2018-12-29T10:13:57.901Z,25.40
2018-12-29T10:14:57.872Z,24.30
2018-12-29T10:15:57.862Z,24.20
2018-12-29T10:16:57.846Z,25.00
2018-12-29T10:17:57.834Z,23.40
2018-12-29T10:18:57.829Z,24.90
2018-12-29T10:19:57.846Z,24.70
2018-12-29T10:20:57.800Z,23.90
2018-12-29T10:21:57.794Z,23.50
2018-12-29T10:22:57.780Z,22.70
2018-12-29T10:23:57.769Z,21.60
2018-12-29T10:24:57.784Z,30.30
2018-12-29T10:25:57.750Z,25.50
2018-12-29T10:26:57.744Z,23.10
2018-12-29T10:27:57.731Z,21.50
2018-12-29T10:28:57.719Z,21.70
2018-12-29T10:29:57.734Z,20.80
2018-12-29T10:30:57.693Z,21.50
2018-12-29T10:31:57.687Z,22.40
2018-12-29T10:32:57.674Z,24.00
2018-12-29T10:33:57.668Z,23.10
2018-12-29T10:34:57.653Z,21.00
2018-12-29T10:35:57.656Z,21.90
2018-12-29T10:36:57.629Z,24.10
2018-12-29T10:37:57.623Z,24.00
2018-12-29T10:38:57.613Z,25.20
2018-12-29T10:39:57.596Z,22.40
2018-12-29T10:40:57.631Z,20.90
2018-12-29T10:41:57.579Z,22.40
2018-12-29T10:42:57.567Z,22.40
2018-12-29T10:43:57.554Z,23.30
2018-12-29T10:44:57.545Z,22.30
2018-12-29T10:45:57.538Z,22.70
2018-12-29T10:46:57.570Z,23.10
2018-12-29T10:47:57.513Z,23.30
2018-12-29T10:48:57.500Z,23.50
2018-12-29T10:49:57.487Z,21.80
2018-12-29T10:50:57.478Z,20.90
2018-12-29T10:51:57.464Z,22.40
2018-12-29T10:52:57.474Z,21.20
2018-12-29T10:53:57.445Z,20.30
2018-12-29T10:54:57.431Z,23.30
2018-12-29T10:55:57.425Z,24.60
2018-12-29T10:56:57.434Z,24.10
2018-12-29T10:57:57.426Z,23.50
2018-12-29T10:58:57.388Z,23.40
2018-12-29T10:59:57.377Z,24.40
2018-12-29T11:00:57.374Z,23.90
2018-12-29T11:01:57.358Z,22.90
2018-12-29T11:02:57.368Z,23.50
2018-12-29T11:03:57.334Z,22.70
2018-12-29T11:04:57.323Z,23.40
2018-12-29T11:05:57.365Z,22.90
2018-12-29T11:06:57.300Z,21.40
2018-12-29T11:07:57.300Z,21.40
2018-12-29T11:08:57.283Z,22.20
2018-12-29T11:09:57.275Z,21.10
2018-12-29T11:10:57.255Z,22.40
2018-12-29T11:11:57.307Z,21.70
2018-12-29T11:12:57.235Z,22.20
2018-12-29T11:13:57.226Z,22.20
2018-12-29T11:14:57.232Z,22.60
2018-12-29T11:15:57.261Z,21.70
2018-12-29T11:16:57.201Z,21.40
2018-12-29T11:17:57.179Z,22.60
2018-12-29T11:18:57.199Z,21.20
2018-12-29T11:19:57.164Z,21.70
2018-12-29T11:20:57.153Z,22.70
2018-12-29T11:21:57.175Z,21.40
2018-12-29T11:22:57.140Z,21.20
2018-12-29T11:23:57.150Z,23.10
2018-12-29T11:24:57.103Z,22.90
2018-12-29T11:25:57.099Z,22.20
2018-12-29T11:26:57.083Z,21.50
2018-12-29T11:27:57.076Z,21.70
2018-12-29T11:28:57.070Z,21.60
2018-12-29T11:29:57.101Z,23.50
2018-12-29T11:30:57.044Z,22.80
2018-12-29T11:31:57.035Z,24.00
2018-12-29T11:32:57.018Z,23.40
2018-12-29T11:33:57.011Z,23.40
2018-12-29T11:34:57.094Z,25.70
2018-12-29T11:35:56.992Z,40.10
2018-12-29T11:36:56.981Z,26.70
2018-12-29T11:37:56.967Z,24.20
2018-12-29T11:38:56.975Z,24.50
2018-12-29T11:39:56.941Z,26.10
2018-12-29T11:40:56.954Z,25.00
2018-12-29T11:41:56.923Z,23.90
2018-12-29T11:42:56.908Z,23.50
2018-12-29T11:43:56.901Z,24.30
2018-12-29T11:44:56.921Z,24.10
2018-12-29T11:45:56.899Z,23.60
2018-12-29T11:46:56.888Z,21.00
2018-12-29T11:47:56.878Z,23.60
2018-12-29T11:48:56.848Z,23.80
2018-12-29T11:49:56.855Z,22.40
2018-12-29T11:50:56.820Z,25.30
2018-12-29T11:51:56.810Z,24.20
2018-12-29T11:52:56.798Z,25.30
2018-12-29T11:53:56.802Z,23.70
2018-12-29T11:54:56.785Z,24.40
2018-12-29T11:55:56.790Z,24.20
2018-12-29T11:56:56.754Z,24.60
2018-12-29T11:57:56.743Z,24.20
2018-12-29T11:58:56.737Z,25.90
2018-12-29T11:59:56.767Z,25.10
2018-12-29T12:00:56.714Z,24.20
2018-12-29T12:01:56.702Z,25.30
2018-12-29T12:02:56.690Z,22.30
2018-12-29T12:03:56.683Z,23.50
2018-12-29T12:04:56.666Z,24.00
2018-12-29T12:05:56.686Z,23.50
2018-12-29T12:06:56.646Z,24.60
2018-12-29T12:07:56.640Z,24.40
2018-12-29T12:08:56.624Z,24.30
2018-12-29T12:09:56.616Z,27.40
2018-12-29T12:10:56.604Z,26.00
2018-12-29T12:11:56.603Z,37.90
2018-12-29T12:12:56.604Z,27.30
2018-12-29T12:13:56.571Z,24.10
2018-12-29T12:14:56.562Z,22.30
2018-12-29T12:15:56.551Z,22.10
2018-12-29T12:16:56.558Z,22.80
2018-12-29T12:17:57.521Z,24.10
2018-12-29T12:18:56.512Z,23.80
2018-12-29T12:19:56.502Z,23.10
2018-12-29T12:20:56.494Z,23.10
2018-12-29T12:21:56.485Z,25.30
2018-12-29T12:22:56.491Z,25.00
2018-12-29T12:23:56.457Z,24.30
2018-12-29T12:24:56.450Z,23.60
2018-12-29T12:25:56.435Z,22.40
2018-12-29T12:26:56.432Z,23.70
2018-12-29T12:27:56.416Z,25.30
2018-12-29T12:28:56.459Z,24.80
2018-12-29T12:29:56.392Z,23.70
2018-12-29T12:30:56.394Z,22.70
2018-12-29T12:31:56.375Z,24.00
2018-12-29T12:32:56.367Z,22.60
2018-12-29T12:33:56.349Z,22.80
2018-12-29T12:34:56.362Z,21.90
2018-12-29T12:35:56.331Z,24.20
2018-12-29T12:36:56.413Z,26.00
2018-12-29T12:37:56.308Z,24.60
2018-12-29T12:38:56.298Z,24.20
2018-12-29T12:39:56.299Z,22.10
2018-12-29T12:40:56.278Z,21.90
2018-12-29T12:41:56.265Z,23.60
2018-12-29T12:42:56.254Z,23.20
2018-12-29T12:43:56.242Z,24.10
2018-12-29T12:44:56.258Z,23.60
2018-12-29T12:45:56.219Z,21.90
2018-12-29T12:46:56.210Z,21.40
2018-12-29T12:47:56.204Z,23.10
2018-12-29T12:48:56.191Z,23.10
2018-12-29T12:49:56.191Z,23.10
2018-12-29T12:50:56.168Z,23.90
2018-12-29T12:51:56.170Z,24.60